Terminal Aerodrome Forecast
Issued by NWS

Home | Current Version | Previous Version | Text Only | Print | Product List | Glossary On
Versions: 1 2 3 4 5 6 7 8 9 10 11 12 13
000
FTUS46 KSTO 131700
TAFRBL
TAF
KRBL 131725Z 1318/1418 VRB04KT P6SM FEW250
     FM132200 16009KT P6SM SKC
     FM140400 33005KT P6SM SKC=

USA.gov is the U.S. government's official web portal to all federal, state and local government web resources and services.